sensor_id;sensor_type;location;lat;lon;timestamp;P1;durP1;ratioP1;P2;durP2;ratioP2
66118;SDS011;52912;48.564;9.302;2024-03-02T00:00:21;15.93;;;10.27;;
66118;SDS011;52912;48.564;9.302;2024-03-02T00:02:47;16.25;;;10.55;;
66118;SDS011;52912;48.564;9.302;2024-03-02T00:05:14;17.80;;;11.02;;
66118;SDS011;52912;48.564;9.302;2024-03-02T00:07:40;14.13;;;9.35;;
66118;SDS011;52912;48.564;9.302;2024-03-02T00:10:08;14.15;;;9.02;;
66118;SDS011;52912;48.564;9.302;2024-03-02T00:12:34;14.32;;;8.88;;
66118;SDS011;52912;48.564;9.302;2024-03-02T00:15:00;15.07;;;8.75;;
66118;SDS011;52912;48.564;9.302;2024-03-02T00:17:27;14.77;;;8.98;;
66118;SDS011;52912;48.564;9.302;2024-03-02T00:19:54;14.25;;;8.82;;
66118;SDS011;52912;48.564;9.302;2024-03-02T00:22:20;15.38;;;8.65;;
66118;SDS011;52912;48.564;9.302;2024-03-02T00:24:45;14.70;;;8.30;;
66118;SDS011;52912;48.564;9.302;2024-03-02T00:27:12;13.60;;;8.65;;
66118;SDS011;52912;48.564;9.302;2024-03-02T00:29:40;11.85;;;7.65;;
66118;SDS011;52912;48.564;9.302;2024-03-02T00:32:07;15.43;;;7.97;;
66118;SDS011;52912;48.564;9.302;2024-03-02T00:34:37;14.85;;;8.25;;
66118;SDS011;52912;48.564;9.302;2024-03-02T00:37:02;15.57;;;9.27;;
66118;SDS011;52912;48.564;9.302;2024-03-02T00:39:28;13.38;;;8.98;;
66118;SDS011;52912;48.564;9.302;2024-03-02T00:41:54;15.45;;;10.00;;
66118;SDS011;52912;48.564;9.302;2024-03-02T00:44:20;14.73;;;8.60;;
66118;SDS011;52912;48.564;9.302;2024-03-02T00:46:50;12.90;;;8.02;;
66118;SDS011;52912;48.564;9.302;2024-03-02T00:49:17;14.13;;;8.55;;
66118;SDS011;52912;48.564;9.302;2024-03-02T00:51:47;12.40;;;8.05;;
66118;SDS011;52912;48.564;9.302;2024-03-02T00:54:14;13.65;;;8.23;;
66118;SDS011;52912;48.564;9.302;2024-03-02T00:56:40;17.25;;;9.60;;
66118;SDS011;52912;48.564;9.302;2024-03-02T00:59:07;14.77;;;8.90;;
66118;SDS011;52912;48.564;9.302;2024-03-02T01:01:32;14.23;;;8.40;;
66118;SDS011;52912;48.564;9.302;2024-03-02T01:03:58;14.40;;;8.07;;
66118;SDS011;52912;48.564;9.302;2024-03-02T01:06:23;14.88;;;8.40;;
66118;SDS011;52912;48.564;9.302;2024-03-02T01:08:50;13.40;;;8.07;;
66118;SDS011;52912;48.564;9.302;2024-03-02T01:11:15;13.63;;;8.05;;
66118;SDS011;52912;48.564;9.302;2024-03-02T01:13:41;12.40;;;7.95;;
66118;SDS011;52912;48.564;9.302;2024-03-02T01:16:06;15.40;;;8.25;;
66118;SDS011;52912;48.564;9.302;2024-03-02T01:18:32;12.98;;;8.55;;
66118;SDS011;52912;48.564;9.302;2024-03-02T01:20:57;12.85;;;7.68;;
66118;SDS011;52912;48.564;9.302;2024-03-02T01:23:23;12.80;;;7.80;;
66118;SDS011;52912;48.564;9.302;2024-03-02T01:25:51;11.38;;;7.32;;
66118;SDS011;52912;48.564;9.302;2024-03-02T01:28:17;16.25;;;8.27;;
66118;SDS011;52912;48.564;9.302;2024-03-02T01:30:42;12.10;;;7.53;;
66118;SDS011;52912;48.564;9.302;2024-03-02T01:33:08;12.60;;;7.75;;
66118;SDS011;52912;48.564;9.302;2024-03-02T01:35:33;12.48;;;8.02;;
66118;SDS011;52912;48.564;9.302;2024-03-02T01:37:59;13.23;;;8.05;;
66118;SDS011;52912;48.564;9.302;2024-03-02T01:40:24;13.23;;;8.60;;
66118;SDS011;52912;48.564;9.302;2024-03-02T01:42:52;14.15;;;9.10;;
66118;SDS011;52912;48.564;9.302;2024-03-02T01:45:18;16.02;;;9.40;;
66118;SDS011;52912;48.564;9.302;2024-03-02T01:47:43;15.45;;;9.27;;
66118;SDS011;52912;48.564;9.302;2024-03-02T01:50:09;14.52;;;9.63;;
66118;SDS011;52912;48.564;9.302;2024-03-02T01:52:36;11.88;;;6.80;;
66118;SDS011;52912;48.564;9.302;2024-03-02T01:55:02;11.50;;;7.07;;
66118;SDS011;52912;48.564;9.302;2024-03-02T01:57:28;11.95;;;7.20;;
66118;SDS011;52912;48.564;9.302;2024-03-02T01:59:55;11.00;;;6.97;;
66118;SDS011;52912;48.564;9.302;2024-03-02T02:02:21;11.68;;;7.47;;
66118;SDS011;52912;48.564;9.302;2024-03-02T02:04:46;13.35;;;7.40;;
66118;SDS011;52912;48.564;9.302;2024-03-02T02:07:12;12.90;;;7.55;;
66118;SDS011;52912;48.564;9.302;2024-03-02T02:09:37;12.40;;;7.85;;
66118;SDS011;52912;48.564;9.302;2024-03-02T02:12:03;14.95;;;8.80;;
66118;SDS011;52912;48.564;9.302;2024-03-02T02:14:29;15.98;;;9.55;;
66118;SDS011;52912;48.564;9.302;2024-03-02T02:16:56;14.40;;;8.68;;
66118;SDS011;52912;48.564;9.302;2024-03-02T02:19:22;13.50;;;8.50;;
66118;SDS011;52912;48.564;9.302;2024-03-02T02:21:49;12.43;;;7.60;;
66118;SDS011;52912;48.564;9.302;2024-03-02T02:24:14;13.25;;;7.80;;
66118;SDS011;52912;48.564;9.302;2024-03-02T02:26:40;13.90;;;8.25;;
66118;SDS011;52912;48.564;9.302;2024-03-02T02:29:05;13.30;;;7.80;;
66118;SDS011;52912;48.564;9.302;2024-03-02T02:31:36;13.88;;;8.70;;
66118;SDS011;52912;48.564;9.302;2024-03-02T02:34:02;14.85;;;8.18;;
66118;SDS011;52912;48.564;9.302;2024-03-02T02:36:27;13.80;;;8.10;;
66118;SDS011;52912;48.564;9.302;2024-03-02T02:38:54;14.70;;;8.43;;
66118;SDS011;52912;48.564;9.302;2024-03-02T02:41:20;12.80;;;7.90;;
66118;SDS011;52912;48.564;9.302;2024-03-02T02:43:46;12.95;;;7.80;;
66118;SDS011;52912;48.564;9.302;2024-03-02T02:46:11;15.77;;;8.50;;
66118;SDS011;52912;48.564;9.302;2024-03-02T02:48:37;15.20;;;8.30;;
66118;SDS011;52912;48.564;9.302;2024-03-02T02:51:02;12.90;;;7.72;;
66118;SDS011;52912;48.564;9.302;2024-03-02T02:53:28;13.70;;;7.63;;
66118;SDS011;52912;48.564;9.302;2024-03-02T02:55:55;12.65;;;8.25;;
66118;SDS011;52912;48.564;9.302;2024-03-02T02:58:20;14.13;;;8.70;;
66118;SDS011;52912;48.564;9.302;2024-03-02T03:00:46;12.93;;;8.35;;
66118;SDS011;52912;48.564;9.302;2024-03-02T03:03:11;15.45;;;8.82;;
66118;SDS011;52912;48.564;9.302;2024-03-02T03:05:37;14.65;;;8.25;;
66118;SDS011;52912;48.564;9.302;2024-03-02T03:08:02;14.30;;;8.55;;
66118;SDS011;52912;48.564;9.302;2024-03-02T03:10:28;14.65;;;8.20;;
66118;SDS011;52912;48.564;9.302;2024-03-02T03:12:55;13.93;;;8.25;;
66118;SDS011;52912;48.564;9.302;2024-03-02T03:15:20;14.55;;;8.43;;
66118;SDS011;52912;48.564;9.302;2024-03-02T03:17:46;13.57;;;7.65;;
66118;SDS011;52912;48.564;9.302;2024-03-02T03:20:12;14.07;;;8.05;;
66118;SDS011;52912;48.564;9.302;2024-03-02T03:22:37;13.15;;;7.95;;
66118;SDS011;52912;48.564;9.302;2024-03-02T03:25:04;14.30;;;8.07;;
66118;SDS011;52912;48.564;9.302;2024-03-02T03:27:30;15.13;;;8.52;;
66118;SDS011;52912;48.564;9.302;2024-03-02T03:29:57;15.07;;;9.60;;
66118;SDS011;52912;48.564;9.302;2024-03-02T03:32:23;14.38;;;8.98;;
66118;SDS011;52912;48.564;9.302;2024-03-02T03:34:48;15.00;;;9.35;;
66118;SDS011;52912;48.564;9.302;2024-03-02T03:37:14;15.20;;;9.23;;
66118;SDS011;52912;48.564;9.302;2024-03-02T03:39:39;15.30;;;8.77;;
66118;SDS011;52912;48.564;9.302;2024-03-02T03:42:05;15.18;;;9.35;;
66118;SDS011;52912;48.564;9.302;2024-03-02T03:44:30;14.40;;;8.80;;
66118;SDS011;52912;48.564;9.302;2024-03-02T03:46:57;14.25;;;9.18;;
66118;SDS011;52912;48.564;9.302;2024-03-02T03:49:23;16.33;;;9.38;;
66118;SDS011;52912;48.564;9.302;2024-03-02T03:51:48;17.58;;;9.93;;
66118;SDS011;52912;48.564;9.302;2024-03-02T03:54:14;16.98;;;9.63;;
66118;SDS011;52912;48.564;9.302;2024-03-02T03:56:39;16.20;;;9.98;;
66118;SDS011;52912;48.564;9.302;2024-03-02T03:59:04;13.10;;;9.05;;
66118;SDS011;52912;48.564;9.302;2024-03-02T04:01:30;15.32;;;9.35;;
66118;SDS011;52912;48.564;9.302;2024-03-02T04:03:57;13.75;;;9.25;;
66118;SDS011;52912;48.564;9.302;2024-03-02T04:06:22;14.70;;;8.65;;
66118;SDS011;52912;48.564;9.302;2024-03-02T04:08:48;15.15;;;9.38;;
66118;SDS011;52912;48.564;9.302;2024-03-02T04:11:13;15.52;;;8.60;;
66118;SDS011;52912;48.564;9.302;2024-03-02T04:13:39;14.70;;;8.75;;
66118;SDS011;52912;48.564;9.302;2024-03-02T04:16:04;16.33;;;9.32;;
66118;SDS011;52912;48.564;9.302;2024-03-02T04:18:30;16.45;;;9.98;;
66118;SDS011;52912;48.564;9.302;2024-03-02T04:20:57;16.23;;;9.70;;
66118;SDS011;52912;48.564;9.302;2024-03-02T04:23:22;19.50;;;10.48;;
66118;SDS011;52912;48.564;9.302;2024-03-02T04:25:48;18.38;;;10.63;;
66118;SDS011;52912;48.564;9.302;2024-03-02T04:28:13;19.25;;;10.38;;
66118;SDS011;52912;48.564;9.302;2024-03-02T04:30:39;16.90;;;10.38;;
66118;SDS011;52912;48.564;9.302;2024-03-02T04:33:04;17.95;;;10.32;;
66118;SDS011;52912;48.564;9.302;2024-03-02T04:35:30;17.60;;;10.65;;
66118;SDS011;52912;48.564;9.302;2024-03-02T04:37:57;16.75;;;10.30;;
66118;SDS011;52912;48.564;9.302;2024-03-02T04:40:22;16.83;;;9.98;;
66118;SDS011;52912;48.564;9.302;2024-03-02T04:42:48;20.90;;;10.65;;
66118;SDS011;52912;48.564;9.302;2024-03-02T04:45:13;17.05;;;10.65;;
66118;SDS011;52912;48.564;9.302;2024-03-02T04:47:39;15.60;;;9.80;;
66118;SDS011;52912;48.564;9.302;2024-03-02T04:50:05;15.43;;;9.30;;
66118;SDS011;52912;48.564;9.302;2024-03-02T04:52:31;16.40;;;10.07;;
66118;SDS011;52912;48.564;9.302;2024-03-02T04:54:58;16.95;;;10.20;;
66118;SDS011;52912;48.564;9.302;2024-03-02T04:57:23;15.73;;;10.07;;
66118;SDS011;52912;48.564;9.302;2024-03-02T04:59:49;18.20;;;10.73;;
66118;SDS011;52912;48.564;9.302;2024-03-02T05:02:14;17.58;;;10.73;;
66118;SDS011;52912;48.564;9.302;2024-03-02T05:04:39;20.38;;;11.45;;
66118;SDS011;52912;48.564;9.302;2024-03-02T05:07:05;19.42;;;12.00;;
66118;SDS011;52912;48.564;9.302;2024-03-02T05:09:31;20.15;;;11.32;;
66118;SDS011;52912;48.564;9.302;2024-03-02T05:11:57;15.23;;;9.38;;
66118;SDS011;52912;48.564;9.302;2024-03-02T05:14:23;16.40;;;9.50;;
66118;SDS011;52912;48.564;9.302;2024-03-02T05:16:48;14.20;;;9.05;;
66118;SDS011;52912;48.564;9.302;2024-03-02T05:19:14;13.98;;;7.55;;
66118;SDS011;52912;48.564;9.302;2024-03-02T05:21:39;12.52;;;7.70;;
66118;SDS011;52912;48.564;9.302;2024-03-02T05:24:05;15.27;;;7.80;;
66118;SDS011;52912;48.564;9.302;2024-03-02T05:26:30;12.90;;;6.97;;
66118;SDS011;52912;48.564;9.302;2024-03-02T05:28:57;13.35;;;7.35;;
66118;SDS011;52912;48.564;9.302;2024-03-02T05:31:22;15.52;;;8.82;;
66118;SDS011;52912;48.564;9.302;2024-03-02T05:33:48;16.63;;;9.63;;
66118;SDS011;52912;48.564;9.302;2024-03-02T05:36:13;16.10;;;9.13;;
66118;SDS011;52912;48.564;9.302;2024-03-02T05:38:39;16.88;;;9.40;;
66118;SDS011;52912;48.564;9.302;2024-03-02T05:41:04;14.95;;;8.98;;
66118;SDS011;52912;48.564;9.302;2024-03-02T05:43:30;16.08;;;9.40;;
66118;SDS011;52912;48.564;9.302;2024-03-02T05:45:56;15.95;;;9.43;;
66118;SDS011;52912;48.564;9.302;2024-03-02T05:48:22;28.70;;;9.23;;
66118;SDS011;52912;48.564;9.302;2024-03-02T05:50:48;23.90;;;9.55;;
66118;SDS011;52912;48.564;9.302;2024-03-02T05:53:13;49.55;;;9.05;;
66118;SDS011;52912;48.564;9.302;2024-03-02T05:55:39;30.23;;;8.35;;
66118;SDS011;52912;48.564;9.302;2024-03-02T05:58:04;24.38;;;9.38;;
66118;SDS011;52912;48.564;9.302;2024-03-02T06:00:30;46.95;;;22.63;;
66118;SDS011;52912;48.564;9.302;2024-03-02T06:02:56;29.33;;;16.02;;
66118;SDS011;52912;48.564;9.302;2024-03-02T06:05:22;28.63;;;14.02;;
66118;SDS011;52912;48.564;9.302;2024-03-02T06:07:47;21.73;;;12.90;;
66118;SDS011;52912;48.564;9.302;2024-03-02T06:10:13;16.23;;;10.20;;
66118;SDS011;52912;48.564;9.302;2024-03-02T06:12:40;15.32;;;9.05;;
66118;SDS011;52912;48.564;9.302;2024-03-02T06:15:06;11.60;;;6.45;;
66118;SDS011;52912;48.564;9.302;2024-03-02T06:17:31;11.68;;;7.55;;
66118;SDS011;52912;48.564;9.302;2024-03-02T06:19:58;11.65;;;7.60;;
66118;SDS011;52912;48.564;9.302;2024-03-02T06:22:24;9.80;;;6.40;;
66118;SDS011;52912;48.564;9.302;2024-03-02T06:24:49;11.00;;;6.78;;
66118;SDS011;52912;48.564;9.302;2024-03-02T06:27:15;44.08;;;7.03;;
66118;SDS011;52912;48.564;9.302;2024-03-02T06:29:40;11.73;;;7.20;;
66118;SDS011;52912;48.564;9.302;2024-03-02T06:32:06;15.63;;;9.63;;
66118;SDS011;52912;48.564;9.302;2024-03-02T06:34:31;13.75;;;9.43;;
66118;SDS011;52912;48.564;9.302;2024-03-02T06:36:58;15.35;;;8.52;;
66118;SDS011;52912;48.564;9.302;2024-03-02T06:39:23;12.90;;;7.82;;
66118;SDS011;52912;48.564;9.302;2024-03-02T06:41:49;13.35;;;7.90;;
66118;SDS011;52912;48.564;9.302;2024-03-02T06:44:14;14.98;;;8.10;;
66118;SDS011;52912;48.564;9.302;2024-03-02T06:46:40;12.50;;;8.20;;
66118;SDS011;52912;48.564;9.302;2024-03-02T06:49:05;14.40;;;8.00;;
66118;SDS011;52912;48.564;9.302;2024-03-02T06:51:31;13.95;;;8.43;;
66118;SDS011;52912;48.564;9.302;2024-03-02T06:53:57;13.27;;;8.15;;
66118;SDS011;52912;48.564;9.302;2024-03-02T06:56:23;12.45;;;7.47;;
66118;SDS011;52912;48.564;9.302;2024-03-02T06:58:48;9.00;;;5.80;;
66118;SDS011;52912;48.564;9.302;2024-03-02T07:01:14;10.02;;;5.60;;
66118;SDS011;52912;48.564;9.302;2024-03-02T07:03:39;11.13;;;6.20;;
66118;SDS011;52912;48.564;9.302;2024-03-02T07:06:04;10.32;;;6.60;;
66118;SDS011;52912;48.564;9.302;2024-03-02T07:08:30;10.90;;;6.75;;
66118;SDS011;52912;48.564;9.302;2024-03-02T07:10:57;10.25;;;6.90;;
66118;SDS011;52912;48.564;9.302;2024-03-02T07:13:22;10.18;;;6.95;;
66118;SDS011;52912;48.564;9.302;2024-03-02T07:15:48;11.70;;;6.47;;
66118;SDS011;52912;48.564;9.302;2024-03-02T07:18:13;9.27;;;6.03;;
66118;SDS011;52912;48.564;9.302;2024-03-02T07:20:39;8.88;;;5.13;;
66118;SDS011;52912;48.564;9.302;2024-03-02T07:23:04;8.32;;;4.97;;
66118;SDS011;52912;48.564;9.302;2024-03-02T07:25:30;9.63;;;4.68;;
66118;SDS011;52912;48.564;9.302;2024-03-02T07:27:56;6.75;;;4.32;;
66118;SDS011;52912;48.564;9.302;2024-03-02T07:30:22;6.50;;;4.43;;
66118;SDS011;52912;48.564;9.302;2024-03-02T07:32:49;8.02;;;4.82;;
66118;SDS011;52912;48.564;9.302;2024-03-02T07:35:15;7.45;;;5.05;;
66118;SDS011;52912;48.564;9.302;2024-03-02T07:37:40;6.53;;;4.10;;
66118;SDS011;52912;48.564;9.302;2024-03-02T07:40:07;6.00;;;4.38;;
66118;SDS011;52912;48.564;9.302;2024-03-02T07:42:33;6.57;;;4.20;;
66118;SDS011;52912;48.564;9.302;2024-03-02T07:45:00;6.18;;;3.90;;
66118;SDS011;52912;48.564;9.302;2024-03-02T07:47:26;7.18;;;4.15;;
66118;SDS011;52912;48.564;9.302;2024-03-02T07:49:51;7.18;;;4.18;;
66118;SDS011;52912;48.564;9.302;2024-03-02T07:52:17;5.93;;;3.30;;
66118;SDS011;52912;48.564;9.302;2024-03-02T07:54:42;5.55;;;4.00;;
66118;SDS011;52912;48.564;9.302;2024-03-02T07:57:08;6.30;;;3.97;;
66118;SDS011;52912;48.564;9.302;2024-03-02T07:59:33;5.43;;;3.60;;
66118;SDS011;52912;48.564;9.302;2024-03-02T08:02:00;6.03;;;3.63;;
66118;SDS011;52912;48.564;9.302;2024-03-02T08:04:26;5.72;;;3.53;;
66118;SDS011;52912;48.564;9.302;2024-03-02T08:06:51;5.63;;;3.60;;
66118;SDS011;52912;48.564;9.302;2024-03-02T08:09:17;15.00;;;7.78;;
66118;SDS011;52912;48.564;9.302;2024-03-02T08:11:42;11.30;;;8.05;;
66118;SDS011;52912;48.564;9.302;2024-03-02T08:14:07;6.18;;;3.95;;
66118;SDS011;52912;48.564;9.302;2024-03-02T08:16:33;11.32;;;5.63;;
66118;SDS011;52912;48.564;9.302;2024-03-02T08:19:00;6.45;;;4.00;;
66118;SDS011;52912;48.564;9.302;2024-03-02T08:21:25;6.13;;;2.97;;
66118;SDS011;52912;48.564;9.302;2024-03-02T08:23:51;4.72;;;2.88;;
66118;SDS011;52912;48.564;9.302;2024-03-02T08:26:16;4.57;;;3.08;;
66118;SDS011;52912;48.564;9.302;2024-03-02T08:28:42;7.70;;;3.33;;
66118;SDS011;52912;48.564;9.302;2024-03-02T08:31:07;5.57;;;3.65;;
66118;SDS011;52912;48.564;9.302;2024-03-02T08:33:33;5.00;;;3.33;;
66118;SDS011;52912;48.564;9.302;2024-03-02T08:36:00;4.53;;;3.00;;
66118;SDS011;52912;48.564;9.302;2024-03-02T08:38:25;4.28;;;2.60;;
66118;SDS011;52912;48.564;9.302;2024-03-02T08:40:51;5.82;;;3.10;;
66118;SDS011;52912;48.564;9.302;2024-03-02T08:43:17;5.22;;;3.45;;
66118;SDS011;52912;48.564;9.302;2024-03-02T08:45:43;4.05;;;3.00;;
66118;SDS011;52912;48.564;9.302;2024-03-02T08:48:08;4.78;;;2.88;;
66118;SDS011;52912;48.564;9.302;2024-03-02T08:50:34;4.65;;;3.00;;
66118;SDS011;52912;48.564;9.302;2024-03-02T08:53:02;4.65;;;2.90;;
66118;SDS011;52912;48.564;9.302;2024-03-02T08:55:28;5.90;;;3.08;;
66118;SDS011;52912;48.564;9.302;2024-03-02T08:57:54;7.38;;;4.50;;
66118;SDS011;52912;48.564;9.302;2024-03-02T09:00:20;6.43;;;3.95;;
66118;SDS011;52912;48.564;9.302;2024-03-02T09:02:46;8.48;;;4.65;;
66118;SDS011;52912;48.564;9.302;2024-03-02T09:05:11;6.75;;;3.70;;
66118;SDS011;52912;48.564;9.302;2024-03-02T09:07:37;7.45;;;5.03;;
66118;SDS011;52912;48.564;9.302;2024-03-02T09:10:04;9.85;;;6.97;;
66118;SDS011;52912;48.564;9.302;2024-03-02T09:12:30;9.27;;;6.40;;
66118;SDS011;52912;48.564;9.302;2024-03-02T09:14:56;10.68;;;6.95;;
66118;SDS011;52912;48.564;9.302;2024-03-02T09:17:21;10.65;;;6.88;;
66118;SDS011;52912;48.564;9.302;2024-03-02T09:19:47;10.00;;;6.22;;
66118;SDS011;52912;48.564;9.302;2024-03-02T09:22:12;10.30;;;6.47;;
66118;SDS011;52912;48.564;9.302;2024-03-02T09:24:38;9.70;;;6.80;;
66118;SDS011;52912;48.564;9.302;2024-03-02T09:27:05;8.98;;;6.03;;
66118;SDS011;52912;48.564;9.302;2024-03-02T09:29:30;9.90;;;6.70;;
66118;SDS011;52912;48.564;9.302;2024-03-02T09:31:56;10.63;;;7.00;;
66118;SDS011;52912;48.564;9.302;2024-03-02T09:34:21;9.35;;;6.60;;
66118;SDS011;52912;48.564;9.302;2024-03-02T09:36:47;10.07;;;6.18;;
66118;SDS011;52912;48.564;9.302;2024-03-02T09:39:12;8.75;;;6.40;;
66118;SDS011;52912;48.564;9.302;2024-03-02T09:41:38;8.93;;;5.75;;
66118;SDS011;52912;48.564;9.302;2024-03-02T09:44:05;8.77;;;5.97;;
66118;SDS011;52912;48.564;9.302;2024-03-02T09:46:31;8.05;;;6.10;;
66118;SDS011;52912;48.564;9.302;2024-03-02T09:48:57;11.30;;;6.63;;
66118;SDS011;52912;48.564;9.302;2024-03-02T09:51:22;8.05;;;6.22;;
66118;SDS011;52912;48.564;9.302;2024-03-02T09:53:48;8.18;;;5.85;;
66118;SDS011;52912;48.564;9.302;2024-03-02T09:56:14;7.70;;;5.47;;
66118;SDS011;52912;48.564;9.302;2024-03-02T09:58:39;7.65;;;5.28;;
66118;SDS011;52912;48.564;9.302;2024-03-02T10:01:07;7.82;;;4.68;;
66118;SDS011;52912;48.564;9.302;2024-03-02T10:03:33;6.68;;;4.55;;
66118;SDS011;52912;48.564;9.302;2024-03-02T10:08:46;5.57;;;3.65;;
66118;SDS011;52912;48.564;9.302;2024-03-02T10:11:23;11.48;;;3.00;;
66118;SDS011;52912;48.564;9.302;2024-03-02T10:13:51;3.55;;;2.50;;
66118;SDS011;52912;48.564;9.302;2024-03-02T10:16:17;4.68;;;2.60;;
66118;SDS011;52912;48.564;9.302;2024-03-02T10:18:43;4.50;;;2.55;;
66118;SDS011;52912;48.564;9.302;2024-03-02T10:21:13;3.15;;;1.95;;
66118;SDS011;52912;48.564;9.302;2024-03-02T10:23:38;4.60;;;3.17;;
66118;SDS011;52912;48.564;9.302;2024-03-02T10:26:05;4.40;;;2.70;;
66118;SDS011;52912;48.564;9.302;2024-03-02T10:28:45;5.22;;;2.95;;
66118;SDS011;52912;48.564;9.302;2024-03-02T10:31:11;5.90;;;3.95;;
66118;SDS011;52912;48.564;9.302;2024-03-02T10:33:38;6.53;;;3.28;;
66118;SDS011;52912;48.564;9.302;2024-03-02T10:36:04;9.05;;;3.80;;
66118;SDS011;52912;48.564;9.302;2024-03-02T10:38:30;3.90;;;3.05;;
66118;SDS011;52912;48.564;9.302;2024-03-02T10:40:56;5.63;;;3.80;;
66118;SDS011;52912;48.564;9.302;2024-03-02T10:43:22;5.95;;;3.90;;
66118;SDS011;52912;48.564;9.302;2024-03-02T10:45:49;5.88;;;3.90;;
66118;SDS011;52912;48.564;9.302;2024-03-02T10:48:14;6.35;;;3.55;;
66118;SDS011;52912;48.564;9.302;2024-03-02T10:50:41;6.82;;;3.72;;
66118;SDS011;52912;48.564;9.302;2024-03-02T10:53:07;6.88;;;4.15;;
66118;SDS011;52912;48.564;9.302;2024-03-02T10:55:32;5.05;;;3.50;;
66118;SDS011;52912;48.564;9.302;2024-03-02T10:57:58;9.00;;;4.20;;
66118;SDS011;52912;48.564;9.302;2024-03-02T11:00:25;6.45;;;3.97;;
66118;SDS011;52912;48.564;9.302;2024-03-02T11:02:56;5.40;;;3.72;;
66118;SDS011;52912;48.564;9.302;2024-03-02T11:05:31;5.15;;;3.70;;
66118;SDS011;52912;48.564;9.302;2024-03-02T11:08:01;5.13;;;3.40;;
66118;SDS011;52912;48.564;9.302;2024-03-02T11:10:34;5.20;;;3.47;;
66118;SDS011;52912;48.564;9.302;2024-03-02T11:13:02;4.75;;;3.70;;
66118;SDS011;52912;48.564;9.302;2024-03-02T11:15:30;5.47;;;3.60;;
66118;SDS011;52912;48.564;9.302;2024-03-02T11:17:56;8.85;;;3.85;;
66118;SDS011;52912;48.564;9.302;2024-03-02T11:20:22;5.22;;;3.05;;
66118;SDS011;52912;48.564;9.302;2024-03-02T11:22:49;4.47;;;2.65;;
66118;SDS011;52912;48.564;9.302;2024-03-02T11:25:25;4.53;;;2.60;;
66118;SDS011;52912;48.564;9.302;2024-03-02T11:28:01;4.70;;;2.65;;
66118;SDS011;52912;48.564;9.302;2024-03-02T11:33:22;1.70;;;1.60;;
66118;SDS011;52912;48.564;9.302;2024-03-02T11:35:51;1.73;;;1.30;;
66118;SDS011;52912;48.564;9.302;2024-03-02T11:38:17;2.03;;;1.60;;
66118;SDS011;52912;48.564;9.302;2024-03-02T11:40:44;2.72;;;1.83;;
66118;SDS011;52912;48.564;9.302;2024-03-02T11:43:10;1.90;;;1.45;;
66118;SDS011;52912;48.564;9.302;2024-03-02T11:45:36;2.10;;;1.50;;
66118;SDS011;52912;48.564;9.302;2024-03-02T11:48:02;2.42;;;1.40;;
66118;SDS011;52912;48.564;9.302;2024-03-02T11:50:33;1.92;;;1.40;;
66118;SDS011;52912;48.564;9.302;2024-03-02T11:52:59;2.63;;;1.52;;
66118;SDS011;52912;48.564;9.302;2024-03-02T11:55:25;1.40;;;1.30;;
66118;SDS011;52912;48.564;9.302;2024-03-02T11:57:53;1.35;;;1.10;;
66118;SDS011;52912;48.564;9.302;2024-03-02T12:00:18;1.50;;;1.40;;
66118;SDS011;52912;48.564;9.302;2024-03-02T12:02:44;1.60;;;1.35;;
66118;SDS011;52912;48.564;9.302;2024-03-02T12:05:13;1.30;;;1.20;;
66118;SDS011;52912;48.564;9.302;2024-03-02T12:07:39;1.30;;;1.20;;
66118;SDS011;52912;48.564;9.302;2024-03-02T12:10:05;1.50;;;1.40;;
66118;SDS011;52912;48.564;9.302;2024-03-02T12:12:30;2.30;;;1.40;;
66118;SDS011;52912;48.564;9.302;2024-03-02T12:14:57;1.45;;;1.23;;
66118;SDS011;52912;48.564;9.302;2024-03-02T12:17:23;3.03;;;1.73;;
66118;SDS011;52912;48.564;9.302;2024-03-02T12:19:48;1.48;;;1.20;;
66118;SDS011;52912;48.564;9.302;2024-03-02T12:22:13;2.08;;;1.30;;
66118;SDS011;52912;48.564;9.302;2024-03-02T12:24:39;1.60;;;1.30;;
66118;SDS011;52912;48.564;9.302;2024-03-02T12:27:06;2.70;;;1.90;;
66118;SDS011;52912;48.564;9.302;2024-03-02T12:29:31;1.63;;;1.23;;
66118;SDS011;52912;48.564;9.302;2024-03-02T12:31:59;3.83;;;1.35;;
66118;SDS011;52912;48.564;9.302;2024-03-02T12:34:24;1.65;;;1.10;;
66118;SDS011;52912;48.564;9.302;2024-03-02T12:36:51;1.60;;;1.15;;
66118;SDS011;52912;48.564;9.302;2024-03-02T12:39:16;1.70;;;1.20;;
66118;SDS011;52912;48.564;9.302;2024-03-02T12:41:42;2.00;;;1.30;;
66118;SDS011;52912;48.564;9.302;2024-03-02T12:44:08;1.65;;;1.30;;
66118;SDS011;52912;48.564;9.302;2024-03-02T12:46:33;1.48;;;1.15;;
66118;SDS011;52912;48.564;9.302;2024-03-02T12:49:04;2.53;;;1.25;;
66118;SDS011;52912;48.564;9.302;2024-03-02T12:51:33;1.35;;;1.08;;
66118;SDS011;52912;48.564;9.302;2024-03-02T12:53:59;2.00;;;1.42;;
66118;SDS011;52912;48.564;9.302;2024-03-02T12:56:25;1.40;;;1.30;;
66118;SDS011;52912;48.564;9.302;2024-03-02T12:58:52;2.83;;;1.50;;
66118;SDS011;52912;48.564;9.302;2024-03-02T13:01:18;1.35;;;1.25;;
66118;SDS011;52912;48.564;9.302;2024-03-02T13:03:44;1.55;;;1.10;;
66118;SDS011;52912;48.564;9.302;2024-03-02T13:06:11;1.33;;;1.20;;
66118;SDS011;52912;48.564;9.302;2024-03-02T13:08:36;1.60;;;1.20;;
66118;SDS011;52912;48.564;9.302;2024-03-02T13:11:01;1.67;;;1.30;;
66118;SDS011;52912;48.564;9.302;2024-03-02T13:13:30;2.22;;;1.25;;
66118;SDS011;52912;48.564;9.302;2024-03-02T13:15:55;2.70;;;1.10;;
66118;SDS011;52912;48.564;9.302;2024-03-02T13:18:21;1.90;;;1.20;;
66118;SDS011;52912;48.564;9.302;2024-03-02T13:20:47;1.77;;;1.17;;
66118;SDS011;52912;48.564;9.302;2024-03-02T13:23:14;3.63;;;1.17;;
66118;SDS011;52912;48.564;9.302;2024-03-02T13:25:39;1.40;;;1.20;;
66118;SDS011;52912;48.564;9.302;2024-03-02T13:28:05;4.03;;;1.05;;
66118;SDS011;52912;48.564;9.302;2024-03-02T13:30:31;1.77;;;1.20;;
66118;SDS011;52912;48.564;9.302;2024-03-02T13:32:56;1.23;;;1.10;;
66118;SDS011;52912;48.564;9.302;2024-03-02T13:35:22;1.92;;;1.48;;
66118;SDS011;52912;48.564;9.302;2024-03-02T13:37:47;4.55;;;1.35;;
66118;SDS011;52912;48.564;9.302;2024-03-02T13:40:14;1.77;;;1.30;;
66118;SDS011;52912;48.564;9.302;2024-03-02T13:42:39;6.88;;;1.40;;
66118;SDS011;52912;48.564;9.302;2024-03-02T13:45:05;3.17;;;1.40;;
66118;SDS011;52912;48.564;9.302;2024-03-02T13:47:31;2.42;;;1.33;;
66118;SDS011;52912;48.564;9.302;2024-03-02T13:49:57;1.48;;;1.13;;
66118;SDS011;52912;48.564;9.302;2024-03-02T13:52:22;3.67;;;1.40;;
66118;SDS011;52912;48.564;9.302;2024-03-02T13:54:47;1.90;;;1.23;;
66118;SDS011;52912;48.564;9.302;2024-03-02T13:57:14;1.20;;;1.10;;
66118;SDS011;52912;48.564;9.302;2024-03-02T13:59:40;1.67;;;1.10;;
66118;SDS011;52912;48.564;9.302;2024-03-02T14:02:07;1.33;;;1.10;;
66118;SDS011;52912;48.564;9.302;2024-03-02T14:04:33;1.83;;;1.20;;
66118;SDS011;52912;48.564;9.302;2024-03-02T14:06:59;1.30;;;1.20;;
66118;SDS011;52912;48.564;9.302;2024-03-02T14:09:25;1.02;;;0.90;;
66118;SDS011;52912;48.564;9.302;2024-03-02T14:11:51;1.38;;;1.08;;
66118;SDS011;52912;48.564;9.302;2024-03-02T14:14:18;2.00;;;1.40;;
66118;SDS011;52912;48.564;9.302;2024-03-02T14:16:43;2.95;;;1.50;;
66118;SDS011;52912;48.564;9.302;2024-03-02T14:19:09;5.07;;;2.40;;
66118;SDS011;52912;48.564;9.302;2024-03-02T14:21:34;1.33;;;1.23;;
66118;SDS011;52912;48.564;9.302;2024-03-02T14:24:00;3.60;;;2.47;;
66118;SDS011;52912;48.564;9.302;2024-03-02T14:26:25;1.40;;;1.30;;
66118;SDS011;52912;48.564;9.302;2024-03-02T14:28:51;1.63;;;1.50;;
66118;SDS011;52912;48.564;9.302;2024-03-02T14:31:17;1.85;;;1.50;;
66118;SDS011;52912;48.564;9.302;2024-03-02T14:33:43;1.40;;;1.30;;
66118;SDS011;52912;48.564;9.302;2024-03-02T14:36:08;1.75;;;1.50;;
66118;SDS011;52912;48.564;9.302;2024-03-02T14:38:34;3.63;;;1.50;;